Time;durP1;ratioP1;P1;durP2;ratioP2;P2;SDS_P1;SDS_P2;PMS_P1;PMS_P2;Temp;Humidity;BMP_temperature;BMP_pressure;BME280_temperature;BME280_humidity;BME280_pressure;Samples;Min_cycle;Max_cycle;Signal;HPM_P1;HPM_P2
2021/12/15 00:02:24;;;;;;;31.17;19.05;;;77.70;2227.20;;;;;;5014412;28;20037;-66
2021/12/15 00:04:53;;;;;;;49.33;27.55;;;102.40;2227.20;;;;;;5011420;28;20025;-65
2021/12/15 00:07:25;;;;;;;36.10;22.73;;;77.70;2227.20;;;;;;5014063;28;20041;-67
2021/12/15 00:09:51;;;;;;;71.22;41.97;;;102.50;2227.20;;;;;;5018280;28;20456;-66
2021/12/15 00:12:17;;;;;;;56.20;33.63;;;102.50;2227.20;;;;;;5018300;28;20028;-66
2021/12/15 00:14:44;;;;;;;34.58;22.92;;;102.60;2227.20;;;;;;5016780;28;20033;-66
2021/12/15 00:17:10;;;;;;;33.40;21.45;;;102.70;2227.20;;;;;;5024303;28;20044;-65
2021/12/15 00:19:39;;;;;;;27.60;17.50;;;102.70;2227.20;;;;;;5016814;28;20022;-66
2021/12/15 00:22:05;;;;;;;27.58;18.30;;;102.80;2227.20;;;;;;5024924;28;20014;-65
2021/12/15 00:24:32;;;;;;;30.00;20.00;;;103.00;2227.20;;;;;;5024946;28;20029;-65
2021/12/15 00:26:58;;;;;;;31.98;20.98;;;103.00;2227.20;;;;;;5019325;28;20075;-66
2021/12/15 00:29:24;;;;;;;40.20;25.35;;;103.00;2227.20;;;;;;5013549;28;20026;-65
2021/12/15 00:31:51;;;;;;;42.17;27.00;;;103.00;2227.20;;;;;;5022331;28;20495;-67
2021/12/15 00:34:17;;;;;;;42.95;26.77;;;103.10;2227.20;;;;;;5026283;28;20046;-66
2021/12/15 00:36:44;;;;;;;33.88;19.85;;;103.00;2227.20;;;;;;5010521;28;20034;-66
2021/12/15 00:39:11;;;;;;;29.40;20.77;;;103.00;2227.20;;;;;;5020065;28;20372;-65
2021/12/15 00:41:38;;;;;;;39.83;27.05;;;102.90;2227.20;;;;;;5014407;28;20037;-66
2021/12/15 00:44:05;;;;;;;40.67;23.15;;;102.90;2227.20;;;;;;5015375;28;20037;-67
2021/12/15 00:46:32;;;;;;;57.78;34.55;;;103.10;2227.20;;;;;;5019247;28;20037;-66
2021/12/15 00:48:58;;;;;;;41.55;24.48;;;103.00;2227.20;;;;;;5008921;28;20034;-66
2021/12/15 00:51:24;;;;;;;39.10;23.63;;;102.90;2227.20;;;;;;5010596;28;20018;-65
2021/12/15 00:53:50;;;;;;;49.55;33.63;;;102.90;2227.20;;;;;;5010890;28;20026;-67
2021/12/15 00:56:16;;;;;;;38.92;26.25;;;102.70;2227.20;;;;;;5010403;28;20026;-67
2021/12/15 00:58:43;;;;;;;47.78;31.95;;;102.80;2227.20;;;;;;5010762;28;20033;-67
2021/12/15 01:01:10;;;;;;;56.17;34.35;;;102.80;2227.20;;;;;;5010581;28;20028;-67
2021/12/15 01:03:36;;;;;;;63.15;43.83;;;102.70;2227.20;;;;;;5010180;28;20084;-64
2021/12/15 01:06:09;;;;;;;48.78;35.17;;;102.80;2227.20;;;;;;5010563;28;20075;-67
2021/12/15 01:08:40;;;;;;;34.42;20.27;;;102.90;2227.20;;;;;;5010624;28;20026;-65
2021/12/15 01:11:29;;;;;;;58.38;35.17;;;102.90;2227.20;;;;;;5010288;28;20041;-64
2021/12/15 01:19:58;;;;;;;52.13;33.25;;;102.90;2227.20;;;;;;5010354;28;20041;-67
2021/12/15 01:22:28;;;;;;;39.72;24.80;;;102.80;2227.20;;;;;;5009914;28;20034;-68
2021/12/15 01:24:59;;;;;;;34.65;20.70;;;102.80;2227.20;;;;;;5010390;28;20028;-63
2021/12/15 01:27:25;;;;;;;29.25;19.08;;;102.90;2227.20;;;;;;5010471;28;20448;-66
2021/12/15 01:29:51;;;;;;;26.58;15.95;;;102.80;2227.20;;;;;;5010374;28;20022;-66
2021/12/15 01:32:18;;;;;;;25.63;14.70;;;102.90;2227.20;;;;;;5010181;28;20060;-66
2021/12/15 01:34:43;;;;;;;35.10;20.50;;;102.90;2227.20;;;;;;5010055;28;20066;-67
2021/12/15 01:37:12;;;;;;;28.15;16.75;;;102.90;2227.20;;;;;;5010007;28;20061;-67
2021/12/15 01:39:38;;;;;;;22.25;15.82;;;102.90;2227.20;;;;;;5010162;28;20110;-66
2021/12/15 01:42:05;;;;;;;25.55;16.48;;;102.90;2227.20;;;;;;5010252;28;20030;-67
2021/12/15 01:47:03;;;;;;;33.22;22.98;;;102.80;2227.20;;;;;;5009892;28;20071;-65
2021/12/15 01:49:37;;;;;;;26.13;15.73;;;102.90;2227.20;;;;;;5012095;28;20392;-65
2021/12/15 01:52:17;;;;;;;25.73;15.88;;;102.90;2227.20;;;;;;5013954;28;20035;-66
2021/12/15 01:54:47;;;;;;;24.98;15.40;;;103.00;2227.20;;;;;;5014131;28;20096;-66
2021/12/15 01:57:14;;;;;;;25.65;15.73;;;102.90;2227.20;;;;;;5013840;28;20022;-67
2021/12/15 01:59:43;;;;;;;22.85;15.48;;;102.90;2227.20;;;;;;5013770;28;20116;-67
2021/12/15 02:02:10;;;;;;;19.70;13.35;;;102.90;2227.20;;;;;;5013453;28;20033;-67
2021/12/15 02:04:36;;;;;;;23.13;15.13;;;102.90;2227.20;;;;;;5013520;28;20026;-64
2021/12/15 02:07:05;;;;;;;22.98;14.20;;;102.90;2227.20;;;;;;5013738;28;20026;-67
2021/12/15 02:12:00;;;;;;;27.08;15.93;;;102.90;2227.20;;;;;;5013508;28;20092;-68
2021/12/15 02:14:30;;;;;;;26.50;14.95;;;103.10;2227.20;;;;;;5013495;28;20472;-67
2021/12/15 02:16:57;;;;;;;23.27;13.73;;;103.10;2227.20;;;;;;5013385;28;20025;-67
2021/12/15 02:19:22;;;;;;;27.75;16.25;;;103.10;2227.20;;;;;;5013567;28;20033;-68
2021/12/15 02:21:48;;;;;;;31.30;18.20;;;103.10;2227.20;;;;;;5013200;28;20045;-67
2021/12/15 02:24:14;;;;;;;24.48;16.17;;;103.00;2227.20;;;;;;5013397;28;20025;-68
2021/12/15 02:26:45;;;;;;;21.60;15.40;;;103.10;2227.20;;;;;;5013262;28;20026;-67
2021/12/15 02:29:16;;;;;;;23.63;15.85;;;103.20;2227.20;;;;;;5013473;28;20044;-67
2021/12/15 02:37:17;;;;;;;23.45;14.02;;;103.30;2227.20;;;;;;5013325;28;20030;-68
2021/12/15 02:39:48;;;;;;;22.70;15.55;;;128.00;2252.80;;;;;;5013345;28;20409;-68
2021/12/15 02:42:15;;;;;;;90.55;56.83;;;128.10;2252.80;;;;;;5013094;28;20034;-68
2021/12/15 02:44:43;;;;;;;107.07;67.45;;;103.20;2227.20;;;;;;5012916;28;20033;-67
2021/12/15 02:47:15;;;;;;;83.15;50.25;;;103.20;2227.20;;;;;;5012918;28;20372;-67
2021/12/15 02:49:42;;;;;;;39.28;24.98;;;103.20;2227.20;;;;;;5012894;28;20043;-68
2021/12/15 02:52:08;;;;;;;35.67;23.20;;;103.20;2227.20;;;;;;5012961;28;20030;-67
2021/12/15 02:54:35;;;;;;;30.08;18.83;;;103.20;2227.20;;;;;;5012968;28;20544;-67
2021/12/15 02:57:06;;;;;;;30.42;19.70;;;103.10;2227.20;;;;;;5012826;28;20025;-66
2021/12/15 02:59:45;;;;;;;32.28;18.45;;;103.10;2227.20;;;;;;5012553;28;20087;-66
2021/12/15 03:02:44;;;;;;;35.60;21.30;;;103.10;2227.20;;;;;;5012141;28;20018;-66
2021/12/15 03:05:13;;;;;;;29.52;18.38;;;103.00;2227.20;;;;;;5012234;28;20106;-68
2021/12/15 03:07:56;;;;;;;36.53;22.67;;;103.10;2227.20;;;;;;5012434;28;20037;-68
2021/12/15 03:15:51;;;;;;;27.52;17.08;;;103.10;2227.20;;;;;;5012836;28;20068;-67
2021/12/15 03:18:23;;;;;;;27.77;17.60;;;103.10;2227.20;;;;;;5012261;28;20062;-67
2021/12/15 03:20:58;;;;;;;20.10;14.30;;;103.10;2227.20;;;;;;5012158;28;20456;-66
2021/12/15 03:24:16;;;;;;;26.33;17.25;;;103.10;2227.20;;;;;;5012496;28;20044;-66
2021/12/15 03:26:51;;;;;;;39.50;23.23;;;103.30;2227.20;;;;;;4936320;29;20039;-66
2021/12/15 03:37:29;;;;;;;58.75;35.88;;;128.00;2252.80;;;;;;4951666;29;20047;-67
2021/12/15 03:40:06;;;;;;;55.33;33.05;;;128.00;2252.80;;;;;;4951665;29;20023;-66
2021/12/15 03:42:36;;;;;;;44.58;26.77;;;103.30;2227.20;;;;;;4951612;29;20030;-67
2021/12/15 03:45:09;;;;;;;66.43;41.65;;;103.30;2227.20;;;;;;4951553;29;20090;-68
2021/12/15 03:47:38;;;;;;;61.78;38.25;;;103.20;2227.20;;;;;;4951494;29;20034;-68
2021/12/15 03:50:07;;;;;;;52.95;34.22;;;103.30;2227.20;;;;;;4951452;28;20043;-68
2021/12/15 03:52:34;;;;;;;59.28;37.35;;;128.00;2252.80;;;;;;4951422;29;20027;-68
2021/12/15 03:55:00;;;;;;;67.57;40.40;;;103.30;2227.20;;;;;;4951219;29;20083;-68
2021/12/15 03:57:26;;;;;;;40.55;24.77;;;103.30;2227.20;;;;;;4986417;28;20071;-66
2021/12/15 03:59:53;;;;;;;46.03;27.92;;;103.20;2227.20;;;;;;4994457;28;20599;-66
2021/12/15 04:02:20;;;;;;;45.85;31.50;;;128.00;2252.80;;;;;;5011287;28;20037;-68
2021/12/15 04:04:47;;;;;;;40.42;25.83;;;128.00;2252.80;;;;;;5011412;28;20033;-64
2021/12/15 04:07:16;;;;;;;52.10;37.63;;;128.20;2252.80;;;;;;5011376;28;20029;-67
2021/12/15 04:09:42;;;;;;;45.78;28.05;;;128.10;2252.80;;;;;;5011478;28;20030;-67
2021/12/15 04:12:09;;;;;;;30.80;20.23;;;128.10;2252.80;;;;;;5011133;28;20076;-66
2021/12/15 04:14:43;;;;;;;32.67;21.92;;;128.00;2252.80;;;;;;5011347;28;20022;-67
2021/12/15 04:17:26;;;;;;;37.40;23.52;;;128.00;2252.80;;;;;;5010995;28;20526;-67
2021/12/15 04:19:55;;;;;;;40.83;23.15;;;128.10;2252.80;;;;;;5011351;28;20034;-67
2021/12/15 04:22:23;;;;;;;39.85;24.27;;;128.10;2252.80;;;;;;5011333;28;20464;-68
2021/12/15 04:24:49;;;;;;;37.38;23.77;;;128.00;2252.80;;;;;;5011096;28;20032;-66
2021/12/15 04:27:15;;;;;;;34.60;22.08;;;128.10;2252.80;;;;;;5011094;28;20575;-66
2021/12/15 04:29:40;;;;;;;36.50;22.00;;;103.30;2227.20;;;;;;5011159;28;20038;-68
2021/12/15 04:32:12;;;;;;;36.45;23.75;;;103.20;2227.20;;;;;;5010868;28;20144;-66
2021/12/15 04:34:38;;;;;;;29.85;21.23;;;103.20;2227.20;;;;;;5010538;28;20050;-67
2021/12/15 04:37:04;;;;;;;39.88;24.83;;;103.20;2227.20;;;;;;5010978;28;20562;-66
2021/12/15 04:39:30;;;;;;;33.47;22.08;;;103.00;2227.20;;;;;;5010670;28;20465;-66
2021/12/15 04:41:58;;;;;;;38.80;20.88;;;103.20;2227.20;;;;;;5010794;28;20032;-66
2021/12/15 04:44:27;;;;;;;43.45;23.63;;;103.20;2227.20;;;;;;5010834;28;20029;-64
2021/12/15 04:47:08;;;;;;;40.42;25.48;;;128.00;2252.80;;;;;;5010938;28;20073;-66
2021/12/15 04:49:38;;;;;;;31.83;19.13;;;103.20;2227.20;;;;;;5010890;28;20026;-67
2021/12/15 04:52:05;;;;;;;31.90;19.48;;;103.10;2227.20;;;;;;5010844;28;20037;-66
2021/12/15 04:54:31;;;;;;;34.70;24.85;;;103.10;2227.20;;;;;;5009143;28;20034;-65
2021/12/15 04:56:57;;;;;;;34.78;21.67;;;103.10;2227.20;;;;;;5010568;28;20026;-67
2021/12/15 04:59:23;;;;;;;33.75;21.77;;;103.10;2227.20;;;;;;5010735;28;20045;-68
2021/12/15 05:01:50;;;;;;;28.38;19.98;;;103.20;2227.20;;;;;;5010502;28;20057;-67
2021/12/15 05:04:16;;;;;;;37.72;22.55;;;103.20;2227.20;;;;;;5010313;28;20042;-66
2021/12/15 05:06:43;;;;;;;32.88;21.42;;;103.10;2227.20;;;;;;5010554;28;20129;-67
2021/12/15 05:09:09;;;;;;;34.00;20.77;;;103.00;2227.20;;;;;;5010384;28;20022;-66
2021/12/15 05:11:35;;;;;;;34.35;19.90;;;103.10;2227.20;;;;;;5010489;28;20490;-66
2021/12/15 05:14:01;;;;;;;26.58;20.15;;;103.10;2227.20;;;;;;5010635;28;20093;-66
2021/12/15 05:16:27;;;;;;;32.22;21.02;;;103.20;2227.20;;;;;;5010200;28;20054;-66
2021/12/15 05:18:53;;;;;;;35.05;22.35;;;103.10;2227.20;;;;;;5010477;28;20036;-67
2021/12/15 05:21:19;;;;;;;42.25;26.90;;;103.10;2227.20;;;;;;5010302;28;20026;-64
2021/12/15 05:23:50;;;;;;;41.90;28.45;;;103.20;2227.20;;;;;;5013094;28;20163;-65
2021/12/15 05:26:15;;;;;;;33.42;22.10;;;103.10;2227.20;;;;;;5016639;28;20112;-63
2021/12/15 05:28:41;;;;;;;40.50;26.08;;;103.10;2227.20;;;;;;5016757;28;20109;-65
2021/12/15 05:31:07;;;;;;;32.80;21.88;;;103.20;2227.20;;;;;;5016702;28;20025;-64
2021/12/15 05:33:33;;;;;;;32.45;18.58;;;103.20;2227.20;;;;;;5016609;28;20054;-65
2021/12/15 05:35:58;;;;;;;35.22;22.33;;;103.20;2227.20;;;;;;5016610;28;20030;-66
2021/12/15 05:38:25;;;;;;;35.67;22.92;;;103.20;2227.20;;;;;;5016772;28;20495;-67
2021/12/15 05:40:52;;;;;;;24.33;14.82;;;103.20;2227.20;;;;;;5017023;28;20026;-66
2021/12/15 05:43:18;;;;;;;26.35;17.45;;;103.10;2227.20;;;;;;5016483;28;20034;-66
2021/12/15 05:45:44;;;;;;;21.17;15.60;;;103.10;2227.20;;;;;;5016845;28;20030;-66
2021/12/15 05:48:13;;;;;;;29.40;18.55;;;103.10;2227.20;;;;;;5015630;28;20044;-66
2021/12/15 05:50:40;;;;;;;27.10;17.95;;;103.10;2227.20;;;;;;5016509;28;20041;-67
2021/12/15 05:53:06;;;;;;;29.27;19.67;;;103.10;2227.20;;;;;;5016611;28;20038;-66
2021/12/15 05:55:33;;;;;;;30.52;20.48;;;103.20;2227.20;;;;;;5016664;28;20084;-66
2021/12/15 05:57:59;;;;;;;23.10;15.30;;;103.20;2227.20;;;;;;5016414;28;20103;-67
2021/12/15 06:00:28;;;;;;;26.98;16.38;;;103.30;2227.20;;;;;;5016644;28;20769;-67
2021/12/15 06:02:56;;;;;;;25.48;16.38;;;128.10;2252.80;;;;;;5016157;28;20109;-65
2021/12/15 06:05:22;;;;;;;29.60;19.27;;;128.10;2252.80;;;;;;5016530;28;20038;-67
2021/12/15 06:07:48;;;;;;;68.90;42.90;;;128.00;2252.80;;;;;;5016523;28;20084;-67
2021/12/15 06:10:19;;;;;;;28.73;20.40;;;128.10;2252.80;;;;;;5016801;28;20029;-63
2021/12/15 06:12:47;;;;;;;33.63;21.80;;;103.30;2227.20;;;;;;5016532;28;20072;-63
2021/12/15 06:15:20;;;;;;;32.05;20.52;;;103.30;2227.20;;;;;;5016473;28;20030;-64
2021/12/15 06:17:49;;;;;;;28.70;19.02;;;128.10;2252.80;;;;;;5016208;28;20109;-63
2021/12/15 06:20:14;;;;;;;29.77;20.13;;;128.20;2252.80;;;;;;5016536;28;20034;-63
2021/12/15 06:22:41;;;;;;;27.33;18.88;;;128.20;2252.80;;;;;;5016245;28;20022;-64
2021/12/15 06:25:07;;;;;;;39.28;26.08;;;128.30;2252.80;;;;;;5016123;28;20029;-62
2021/12/15 06:27:36;;;;;;;27.05;18.02;;;128.20;2252.80;;;;;;5016363;28;20426;-64
2021/12/15 06:30:02;;;;;;;32.28;23.17;;;128.20;2252.80;;;;;;4998319;28;20080;-58
2021/12/15 06:32:28;;;;;;;28.50;19.52;;;128.10;2252.80;;;;;;5019583;28;20034;-64
2021/12/15 06:34:54;;;;;;;28.10;18.23;;;128.20;2252.80;;;;;;5021856;28;20036;-63
2021/12/15 06:37:20;;;;;;;32.03;19.27;;;128.10;2252.80;;;;;;5029662;28;20042;-62
2021/12/15 06:39:46;;;;;;;31.77;21.95;;;128.10;2252.80;;;;;;5032748;28;20061;-62
2021/12/15 06:42:12;;;;;;;101.45;68.00;;;128.20;2252.80;;;;;;5032835;28;20052;-62
2021/12/15 06:44:40;;;;;;;40.50;24.80;;;128.30;2252.80;;;;;;5021976;28;20504;-62
2021/12/15 07:00:29;;;;;;;;;;;128.30;2252.80;;;;;;5013114;28;20112;-61
2021/12/15 07:02:57;;;;;;;31.70;22.45;;;128.30;2252.80;;;;;;5012673;28;19909;-62
2021/12/15 07:05:25;;;;;;;36.92;24.05;;;128.30;2252.80;;;;;;5012778;28;20579;-62
2021/12/15 07:07:52;;;;;;;27.55;20.13;;;128.30;2252.80;;;;;;5012593;28;20025;-62
2021/12/15 07:10:21;;;;;;;28.77;20.95;;;128.50;2252.80;;;;;;5012342;28;20022;-62
2021/12/15 07:12:49;;;;;;;49.15;37.83;;;128.60;2252.80;;;;;;5012304;28;20022;-61
2021/12/15 07:15:16;;;;;;;64.10;53.70;;;128.80;2252.80;;;;;;5012511;28;20058;-62
2021/12/15 07:17:45;;;;;;;36.97;27.20;;;128.70;2252.80;;;;;;5012259;28;20527;-62
2021/12/15 07:21:15;;;;;;;30.75;22.15;;;128.70;2252.80;;;;;;5012200;28;20034;-62
2021/12/15 07:23:12;;;;;;;37.50;22.30;;;128.60;2252.80;;;;;;4999062;28;20049;-62
2021/12/15 07:25:40;;;;;;;32.85;21.02;;;128.60;2252.80;;;;;;5012204;28;20041;-62
2021/12/15 07:28:06;;;;;;;34.00;22.25;;;128.70;2252.80;;;;;;5012019;28;20365;-62
2021/12/15 07:30:33;;;;;;;31.13;20.05;;;128.80;2252.80;;;;;;5012336;28;20025;-62
2021/12/15 07:32:59;;;;;;;32.13;20.05;;;128.80;2252.80;;;;;;5011570;28;20133;-62
2021/12/15 07:35:27;;;;;;;40.80;30.00;;;128.90;2252.80;;;;;;5011922;28;20049;-62
2021/12/15 07:37:53;;;;;;;35.95;20.83;;;153.60;2252.80;;;;;;5011931;28;20406;-63
2021/12/15 07:40:21;;;;;;;37.03;22.85;;;153.70;2252.80;;;;;;5011970;28;20101;-62
2021/12/15 07:43:04;;;;;;;41.42;25.33;;;153.70;2252.80;;;;;;5011846;28;20036;-62
2021/12/15 07:45:52;;;;;;;47.90;26.70;;;128.90;2252.80;;;;;;5011755;28;20109;-62
2021/12/15 07:48:20;;;;;;;44.50;29.33;;;128.90;2252.80;;;;;;5010965;28;20342;-63
2021/12/15 07:50:50;;;;;;;43.75;27.75;;;128.90;2252.80;;;;;;5011881;28;20443;-63
2021/12/15 07:53:18;;;;;;;42.63;27.60;;;153.60;2252.80;;;;;;5011903;28;20507;-63
2021/12/15 07:55:44;;;;;;;57.10;28.50;;;128.90;2252.80;;;;;;5011834;28;20022;-63
2021/12/15 07:58:10;;;;;;;53.70;30.90;;;128.90;2252.80;;;;;;5011287;28;20038;-63
2021/12/15 08:00:40;;;;;;;58.53;28.83;;;153.60;2252.80;;;;;;5011410;28;20037;-63
2021/12/15 08:03:06;;;;;;;57.08;31.70;;;128.90;2252.80;;;;;;5011503;28;20038;-62
2021/12/15 08:05:33;;;;;;;55.85;31.08;;;128.90;2252.80;;;;;;5011645;28;20030;-62
2021/12/15 08:07:59;;;;;;;53.03;32.95;;;153.60;2252.80;;;;;;5011215;28;20026;-62
2021/12/15 08:10:25;;;;;;;55.97;32.88;;;153.60;2252.80;;;;;;5011406;28;20164;-62
2021/12/15 08:12:51;;;;;;;54.10;33.30;;;153.70;2252.80;;;;;;5011342;28;20032;-62
2021/12/15 08:15:18;;;;;;;61.17;36.92;;;153.90;2252.80;;;;;;5011154;28;20033;-63
2021/12/15 08:17:51;;;;;;;54.47;35.35;;;153.90;2252.80;;;;;;5011296;28;20026;-62
2021/12/15 08:20:19;;;;;;;51.60;30.35;;;154.00;2252.80;;;;;;5010940;28;20476;-62
2021/12/15 08:22:45;;;;;;;52.35;29.60;;;153.80;2252.80;;;;;;5011344;28;20088;-62
2021/12/15 08:25:12;;;;;;;44.70;27.80;;;153.90;2252.80;;;;;;5011223;28;20377;-62
2021/12/15 08:27:38;;;;;;;54.03;30.23;;;153.80;2252.80;;;;;;5010839;28;20022;-62
2021/12/15 08:30:08;;;;;;;47.25;30.52;;;153.80;2252.80;;;;;;5011008;28;20018;-62
2021/12/15 08:32:34;;;;;;;58.10;35.67;;;153.90;2252.80;;;;;;5010889;28;20022;-62
2021/12/15 08:35:00;;;;;;;68.15;39.83;;;154.10;2252.80;;;;;;5010780;28;20539;-62
2021/12/15 08:37:26;;;;;;;51.25;30.40;;;153.90;2252.80;;;;;;5010635;28;20038;-62
2021/12/15 08:39:51;;;;;;;48.88;29.45;;;153.90;2252.80;;;;;;5011156;28;20029;-62
2021/12/15 08:42:17;;;;;;;45.72;29.58;;;153.80;2252.80;;;;;;5010698;28;20041;-62
2021/12/15 08:44:43;;;;;;;46.38;29.58;;;153.70;2252.80;;;;;;5008491;28;20072;-62
2021/12/15 08:47:09;;;;;;;53.42;38.67;;;153.70;2252.80;;;;;;5009152;28;20366;-62
2021/12/15 08:49:36;;;;;;;45.80;28.98;;;153.70;2252.80;;;;;;5009286;28;20062;-62
2021/12/15 08:52:02;;;;;;;46.67;28.58;;;153.80;2252.80;;;;;;5009237;28;20113;-62
2021/12/15 08:54:28;;;;;;;42.05;27.10;;;153.90;2252.80;;;;;;5008963;28;20034;-62
2021/12/15 08:56:55;;;;;;;40.13;26.45;;;153.90;2252.80;;;;;;5008716;28;20052;-62
2021/12/15 08:59:21;;;;;;;46.63;28.77;;;153.80;2252.80;;;;;;5008165;28;20053;-62
2021/12/15 09:01:49;;;;;;;45.83;29.13;;;154.10;2252.80;;;;;;5009001;28;20244;-62
2021/12/15 09:04:15;;;;;;;45.83;27.50;;;154.00;2252.80;;;;;;5009362;28;20072;-62
2021/12/15 09:06:42;;;;;;;50.58;35.22;;;154.10;2252.80;;;;;;5009436;28;20112;-62
2021/12/15 09:09:11;;;;;;;40.53;26.08;;;154.30;2252.80;;;;;;5009876;28;20026;-62
2021/12/15 09:11:37;;;;;;;43.33;28.00;;;154.50;2252.80;;;;;;5009151;28;20030;-62
2021/12/15 09:14:04;;;;;;;44.05;29.60;;;179.20;2252.80;;;;;;5009247;28;20022;-62
2021/12/15 09:16:32;;;;;;;42.10;27.05;;;154.50;2252.80;;;;;;5008623;28;20045;-62
2021/12/15 09:19:00;;;;;;;44.08;28.55;;;154.50;2252.80;;;;;;4990716;28;20121;-64
2021/12/15 09:21:29;;;;;;;51.05;30.73;;;179.30;2252.80;;;;;;5008878;28;20026;-64
2021/12/15 09:23:55;;;;;;;45.30;27.35;;;179.40;2252.80;;;;;;5008354;28;20034;-62
2021/12/15 09:26:21;;;;;;;48.97;29.30;;;179.50;2252.80;;;;;;5008783;28;20053;-62
2021/12/15 09:28:49;;;;;;;46.58;29.73;;;179.40;2252.80;;;;;;5008507;28;20033;-63
2021/12/15 09:31:16;;;;;;;46.30;30.70;;;179.70;2252.80;;;;;;5009633;28;20060;-63
2021/12/15 09:33:48;;;;;;;44.60;29.48;;;179.80;2252.80;;;;;;5010504;28;20042;-63
2021/12/15 09:36:16;;;;;;;45.75;29.77;;;179.90;2252.80;;;;;;5010373;28;20427;-63
2021/12/15 09:38:45;;;;;;;53.45;31.90;;;179.90;2252.80;;;;;;5010047;28;20045;-63
2021/12/15 09:41:14;;;;;;;44.55;28.42;;;179.70;2252.80;;;;;;5008462;28;20117;-62
2021/12/15 09:43:41;;;;;;;60.97;38.30;;;179.70;2252.80;;;;;;5009786;28;20049;-63
2021/12/15 10:05:15;;;;;;;43.78;31.00;;;180.00;2252.80;;;;;;5010095;28;20381;-63
2021/12/15 10:20:56;;;;;;;89.97;46.88;;;154.50;2252.80;;;;;;5013408;28;20064;-62
2021/12/15 10:23:29;;;;;;;40.47;25.27;;;154.20;2252.80;;;;;;5013564;28;20434;-62
2021/12/15 10:25:57;;;;;;;51.08;31.83;;;154.10;2252.80;;;;;;5013399;28;20109;-62
2021/12/15 10:28:29;;;;;;;41.75;25.15;;;154.20;2252.80;;;;;;5013528;28;20099;-62
2021/12/15 10:30:54;;;;;;;58.95;33.70;;;154.30;2252.80;;;;;;5013325;28;20022;-62
2021/12/15 10:33:36;;;;;;;59.45;35.40;;;154.40;2252.80;;;;;;4995284;28;20053;-62
2021/12/15 10:36:08;;;;;;;56.63;31.33;;;154.40;2252.80;;;;;;5013123;28;20026;-62
2021/12/15 10:38:41;;;;;;;48.95;29.30;;;154.50;2252.80;;;;;;5012962;28;20045;-62
2021/12/15 10:41:15;;;;;;;34.72;22.15;;;179.30;2252.80;;;;;;5012842;28;20065;-62
2021/12/15 10:43:49;;;;;;;65.90;35.95;;;179.20;2252.80;;;;;;5012852;28;20037;-62
2021/12/15 10:46:24;;;;;;;27.45;19.33;;;179.20;2252.80;;;;;;4995003;28;20030;-62
2021/12/15 10:49:07;;;;;;;36.05;21.48;;;154.50;2252.80;;;;;;5012898;28;20022;-62
2021/12/15 10:51:47;;;;;;;46.67;28.60;;;179.20;2252.80;;;;;;5013014;28;20437;-62
2021/12/15 10:54:37;;;;;;;50.38;28.33;;;179.40;2252.80;;;;;;5012899;28;20076;-62
2021/12/15 10:57:16;;;;;;;45.55;27.75;;;179.50;2252.80;;;;;;5012793;28;20022;-62
2021/12/15 10:59:53;;;;;;;43.38;31.08;;;179.70;2252.80;;;;;;5012965;28;20512;-62
2021/12/15 11:02:24;;;;;;;51.78;37.80;;;179.80;2252.80;;;;;;5012453;28;20026;-62
2021/12/15 11:04:52;;;;;;;40.95;27.50;;;179.70;2252.80;;;;;;5012643;28;20030;-62
2021/12/15 11:07:36;;;;;;;50.15;36.05;;;179.80;2252.80;;;;;;5012403;28;20018;-62
2021/12/15 11:10:10;;;;;;;38.85;26.73;;;179.70;2252.80;;;;;;5012477;28;20523;-62
2021/12/15 11:12:58;;;;;;;35.55;24.35;;;179.60;2252.80;;;;;;5012321;28;20026;-61
2021/12/15 11:15:39;;;;;;;39.35;25.80;;;179.50;2252.80;;;;;;5012490;28;20388;-62
2021/12/15 11:18:17;;;;;;;31.08;19.90;;;179.50;2252.80;;;;;;5012435;28;20044;-63
2021/12/15 11:20:53;;;;;;;36.13;24.25;;;179.40;2252.80;;;;;;5011952;28;20026;-62
2021/12/15 11:23:21;;;;;;;41.20;25.40;;;179.40;2252.80;;;;;;5012069;28;20034;-62
2021/12/15 11:26:12;;;;;;;32.30;20.27;;;179.60;2252.80;;;;;;5012111;28;20429;-62
2021/12/15 11:28:46;;;;;;;34.35;22.30;;;179.50;2252.80;;;;;;4951618;29;20043;-62
2021/12/15 11:31:18;;;;;;;34.22;22.05;;;179.50;2252.80;;;;;;4951819;29;20110;-62
2021/12/15 11:33:50;;;;;;;33.92;22.05;;;179.50;2252.80;;;;;;4951538;29;20134;-62
2021/12/15 11:36:27;;;;;;;29.75;19.48;;;179.70;2252.80;;;;;;4951477;28;20130;-62
2021/12/15 11:39:04;;;;;;;37.78;30.95;;;179.80;2252.80;;;;;;4951606;29;20047;-61
2021/12/15 11:41:40;;;;;;;27.67;16.90;;;179.70;2252.80;;;;;;4951538;29;20123;-62
2021/12/15 11:44:15;;;;;;;24.10;16.02;;;179.40;2252.80;;;;;;4951534;29;20185;-62
2021/12/15 11:47:03;;;;;;;20.35;13.63;;;179.50;2252.80;;;;;;4951391;29;20051;-62
2021/12/15 11:49:32;;;;;;;27.63;16.75;;;179.50;2252.80;;;;;;4951368;29;20028;-62
2021/12/15 11:52:16;;;;;;;21.05;13.02;;;179.70;2252.80;;;;;;4951285;29;20035;-63
2021/12/15 11:54:49;;;;;;;27.58;16.67;;;179.50;2252.80;;;;;;4951738;29;20167;-62
2021/12/15 11:57:29;;;;;;;28.73;18.45;;;179.60;2252.80;;;;;;4951241;29;20362;-62
2021/12/15 11:59:59;;;;;;;33.92;23.13;;;179.60;2252.80;;;;;;4951297;29;20433;-62
2021/12/15 12:02:31;;;;;;;32.47;21.75;;;179.70;2252.80;;;;;;4951086;29;20489;-62
2021/12/15 12:05:12;;;;;;;29.45;18.30;;;179.70;2252.80;;;;;;4965256;28;20044;-62
2021/12/15 12:07:47;;;;;;;23.52;16.90;;;180.00;2252.80;;;;;;5011229;28;20097;-63
2021/12/15 12:10:32;;;;;;;68.15;56.42;;;204.80;2252.80;;;;;;5009909;28;20065;-63
2021/12/15 12:13:08;;;;;;;30.65;18.20;;;204.90;2252.80;;;;;;5009861;28;20030;-62
2021/12/15 12:15:39;;;;;;;30.23;18.75;;;205.20;2252.80;;;;;;5009948;28;20022;-62
2021/12/15 12:18:14;;;;;;;28.83;17.98;;;205.20;2252.80;;;;;;5009816;28;20392;-63
2021/12/15 12:20:49;;;;;;;36.50;25.10;;;205.20;2252.80;;;;;;5009578;28;20022;-62
2021/12/15 12:23:19;;;;;;;35.13;23.58;;;205.30;2252.80;;;;;;5009369;28;20496;-62
2021/12/15 12:25:49;;;;;;;33.28;24.63;;;205.20;2252.80;;;;;;4991654;28;20037;-63
2021/12/15 12:28:19;;;;;;;25.35;18.85;;;205.20;2252.80;;;;;;5009872;28;20030;-62
2021/12/15 12:30:48;;;;;;;24.90;17.10;;;204.90;2252.80;;;;;;5009419;28;20257;-63
2021/12/15 12:33:16;;;;;;;26.45;19.23;;;204.90;2252.80;;;;;;5008384;28;20204;-62
2021/12/15 12:35:54;;;;;;;22.25;16.02;;;180.00;2252.80;;;;;;5009504;28;20018;-63
2021/12/15 12:38:27;;;;;;;28.70;22.02;;;179.50;2252.80;;;;;;5009330;28;20045;-63
2021/12/15 12:40:57;;;;;;;28.30;17.02;;;179.60;2252.80;;;;;;5009298;28;20029;-64
2021/12/15 12:43:39;;;;;;;29.95;19.13;;;179.60;2252.80;;;;;;5009198;28;20430;-63
2021/12/15 12:46:27;;;;;;;32.10;18.67;;;179.80;2252.80;;;;;;4991324;28;20030;-63
2021/12/15 12:49:24;;;;;;;30.60;19.33;;;179.80;2252.80;;;;;;5008997;28;20053;-63
2021/12/15 13:00:35;;;;;;;27.20;18.38;;;179.60;2252.80;;;;;;5009210;28;20048;-63
2021/12/15 13:03:10;;;;;;;30.35;19.05;;;179.50;2252.80;;;;;;5008475;28;20033;-63
2021/12/15 13:05:50;;;;;;;26.38;15.38;;;179.30;2252.80;;;;;;5009093;28;20637;-63
2021/12/15 13:08:16;;;;;;;25.73;16.85;;;179.30;2252.80;;;;;;5008927;28;20045;-64
2021/12/15 13:11:09;;;;;;;28.90;18.98;;;179.40;2252.80;;;;;;5009054;28;20018;-63
2021/12/15 13:13:49;;;;;;;30.17;18.43;;;179.40;2252.80;;;;;;5009028;28;20041;-63
2021/12/15 13:16:23;;;;;;;27.42;16.90;;;179.20;2252.80;;;;;;5008348;28;20080;-64
2021/12/15 13:18:50;;;;;;;;;;;154.40;2252.80;;;;;;5009059;28;20036;-63
2021/12/15 13:21:22;;;;;;;25.27;15.98;;;154.50;2252.80;;;;;;5008663;28;19906;-64
2021/12/15 13:23:59;;;;;;;32.92;19.90;;;154.40;2252.80;;;;;;5008516;28;20033;-63
2021/12/15 13:29:36;;;;;;;37.95;24.90;;;154.40;2252.80;;;;;;5008661;28;20430;-63
2021/12/15 13:32:03;;;;;;;38.60;26.25;;;154.50;2252.80;;;;;;5008777;28;20073;-63
2021/12/15 13:34:57;;;;;;;108.40;88.20;;;154.50;2252.80;;;;;;5008396;28;20054;-64
2021/12/15 13:37:53;;;;;;;40.78;25.63;;;154.20;2252.80;;;;;;5008689;28;20045;-64
2021/12/15 13:40:53;;;;;;;44.33;28.83;;;154.30;2252.80;;;;;;5008545;28;20084;-63
2021/12/15 13:43:47;;;;;;;44.90;26.77;;;154.30;2252.80;;;;;;5003493;28;20507;-63